createdAt,value
2023-03-14T00:01:25.023Z,0.52
2023-03-14T00:05:08.020Z,1.27
2023-03-14T00:08:50.199Z,0.82
2023-03-14T00:12:33.006Z,2.22
2023-03-14T00:16:14.845Z,1.85
2023-03-14T00:19:56.710Z,3.10
2023-03-14T00:23:40.302Z,5.43
2023-03-14T00:27:22.047Z,2.70
2023-03-14T00:31:09.049Z,1.67
2023-03-14T00:34:50.956Z,4.50
2023-03-14T00:38:33.902Z,3.85
2023-03-14T00:42:15.698Z,7.78
2023-03-14T00:45:58.286Z,4.28
2023-03-14T00:49:40.056Z,4.13
2023-03-14T00:53:22.154Z,4.40
2023-03-14T00:57:03.993Z,2.03
2023-03-14T01:00:46.565Z,1.50
2023-03-14T01:04:28.292Z,6.55
2023-03-14T01:08:10.138Z,3.08
2023-03-14T01:11:51.986Z,3.22
2023-03-14T01:15:38.447Z,5.22
2023-03-14T01:19:20.234Z,3.03
2023-03-14T01:23:01.998Z,4.25
2023-03-14T01:26:43.794Z,6.30
2023-03-14T01:30:25.526Z,8.02
2023-03-14T01:34:07.309Z,6.90
2023-03-14T01:37:49.046Z,7.82
2023-03-14T01:41:30.832Z,4.95
2023-03-14T01:45:50.233Z,6.00
2023-03-14T01:49:36.902Z,3.33
2023-03-14T01:53:22.235Z,5.97
2023-03-14T01:57:13.320Z,4.32
2023-03-14T02:00:58.322Z,5.80
2023-03-14T02:04:40.812Z,4.85
2023-03-14T02:08:23.969Z,8.02
2023-03-14T02:12:08.471Z,11.10
2023-03-14T02:15:50.878Z,5.97
2023-03-14T02:20:08.728Z,4.22
2023-03-14T02:24:12.067Z,9.75
2023-03-14T02:27:54.484Z,9.63
2023-03-14T02:31:36.518Z,11.98
2023-03-14T02:35:24.825Z,4.47
2023-03-14T02:39:16.685Z,14.40
2023-03-14T02:42:58.561Z,6.35
2023-03-14T02:46:40.280Z,9.60
2023-03-14T02:50:25.840Z,4.28
2023-03-14T02:54:07.565Z,4.50
2023-03-14T02:57:49.410Z,6.15
2023-03-14T03:01:31.225Z,7.25
2023-03-14T03:05:12.988Z,9.73
2023-03-14T03:08:54.822Z,8.57
2023-03-14T03:12:36.575Z,7.38
2023-03-14T03:16:18.386Z,6.03
2023-03-14T03:20:00.184Z,8.35
2023-03-14T03:23:41.917Z,7.93
2023-03-14T03:27:23.674Z,6.75
2023-03-14T03:31:10.712Z,7.80
2023-03-14T03:34:52.644Z,9.15
2023-03-14T03:38:34.428Z,7.72
2023-03-14T03:42:16.181Z,6.63
2023-03-14T03:45:57.996Z,5.72
2023-03-14T03:49:39.781Z,9.05
2023-03-14T03:53:32.897Z,7.57
2023-03-14T03:57:15.812Z,5.85
2023-03-14T04:00:57.633Z,4.60
2023-03-14T04:04:40.976Z,9.90
2023-03-14T04:08:22.961Z,9.23
2023-03-14T04:12:04.702Z,6.72
2023-03-14T04:15:46.454Z,6.10
2023-03-14T04:19:28.239Z,9.23
2023-03-14T04:23:10.171Z,11.35
2023-03-14T04:26:51.971Z,7.40
2023-03-14T04:30:33.711Z,8.52
2023-03-14T04:34:15.473Z,5.72
2023-03-14T04:37:57.358Z,6.90
2023-03-14T04:41:39.209Z,7.00
2023-03-14T04:45:21.045Z,3.25
2023-03-14T04:49:02.806Z,7.70
2023-03-14T04:52:44.523Z,6.15
2023-03-14T04:56:26.504Z,10.32
2023-03-14T05:00:09.527Z,6.97
2023-03-14T05:03:51.386Z,9.18
2023-03-14T05:07:33.172Z,5.90
2023-03-14T05:11:15.046Z,10.88
2023-03-14T05:14:56.774Z,7.18
2023-03-14T05:18:39.143Z,6.50
2023-03-14T05:22:20.862Z,8.07
2023-03-14T05:26:02.689Z,5.85
2023-03-14T05:29:44.396Z,8.30
2023-03-14T05:33:26.162Z,5.72
2023-03-14T05:37:08.100Z,7.43
2023-03-14T05:40:49.876Z,10.07
2023-03-14T05:44:31.617Z,6.63
2023-03-14T05:48:13.604Z,3.75
2023-03-14T05:51:55.381Z,7.70
2023-03-14T05:55:37.148Z,6.30
2023-03-14T05:59:18.903Z,8.77
2023-03-14T06:03:00.707Z,10.15
2023-03-14T06:06:42.614Z,5.78
2023-03-14T06:10:24.407Z,7.93
2023-03-14T06:14:06.166Z,11.52
2023-03-14T06:17:47.998Z,10.30
2023-03-14T06:21:29.970Z,4.70
2023-03-14T06:25:11.775Z,7.90
2023-03-14T06:28:54.738Z,6.72
2023-03-14T06:32:36.582Z,5.82
2023-03-14T06:36:18.446Z,6.93
2023-03-14T06:40:00.241Z,7.93
2023-03-14T06:43:42.062Z,3.22
2023-03-14T06:47:23.897Z,10.05
2023-03-14T06:51:05.942Z,12.00
2023-03-14T06:54:47.714Z,5.32
2023-03-14T06:58:29.470Z,8.73
2023-03-14T07:02:13.481Z,5.28
2023-03-14T07:05:55.904Z,5.80
2023-03-14T07:09:37.640Z,7.85
2023-03-14T07:13:19.484Z,8.07
2023-03-14T07:17:01.241Z,3.92
2023-03-14T07:20:42.960Z,4.93
2023-03-14T07:24:24.810Z,4.68
2023-03-14T07:28:06.619Z,7.43
2023-03-14T07:31:48.593Z,9.93
2023-03-14T07:35:30.476Z,5.45
2023-03-14T07:39:12.228Z,7.28
2023-03-14T07:42:56.187Z,6.97
2023-03-14T07:46:38.046Z,3.15
2023-03-14T07:50:20.236Z,4.47
2023-03-14T07:54:02.038Z,5.10
2023-03-14T07:57:43.829Z,4.53
2023-03-14T08:01:25.582Z,3.22
2023-03-14T08:05:07.890Z,4.25
2023-03-14T08:08:49.966Z,5.90
2023-03-14T08:12:33.306Z,4.78
2023-03-14T08:16:15.148Z,3.67
2023-03-14T08:19:57.186Z,5.18
2023-03-14T08:23:39.297Z,3.50
2023-03-14T08:27:21.135Z,3.72
2023-03-14T08:31:03.746Z,5.07
2023-03-14T08:34:45.622Z,4.90
2023-03-14T08:38:28.175Z,2.15
2023-03-14T08:42:09.948Z,2.55
2023-03-14T08:45:51.848Z,1.20
2023-03-14T08:49:33.628Z,5.47
2023-03-14T08:53:15.476Z,4.93
2023-03-14T08:56:57.327Z,6.78
2023-03-14T09:00:39.229Z,3.33
2023-03-14T09:04:21.338Z,4.72
2023-03-14T09:08:03.237Z,5.97
2023-03-14T09:11:45.003Z,4.03
2023-03-14T09:15:26.858Z,3.13
2023-03-14T09:19:08.637Z,4.05
2023-03-14T09:22:50.409Z,1.80
2023-03-14T09:26:32.642Z,3.55
2023-03-14T09:30:14.740Z,1.60
2023-03-14T09:33:57.029Z,2.92
2023-03-14T09:37:40.063Z,1.13
2023-03-14T09:41:26.323Z,0.70
2023-03-14T09:45:18.496Z,0.98
2023-03-14T09:49:00.567Z,2.47
2023-03-14T09:52:47.495Z,1.42
2023-03-14T09:56:33.059Z,1.52
2023-03-14T10:00:18.641Z,1.25
2023-03-14T10:04:24.332Z,1.55
2023-03-14T10:08:06.644Z,2.72
2023-03-14T10:11:48.464Z,3.63
2023-03-14T10:15:36.927Z,1.17
2023-03-14T10:19:19.070Z,1.55
2023-03-14T10:23:19.028Z,0.50
2023-03-14T10:27:03.439Z,1.23
2023-03-14T10:30:46.834Z,0.52
2023-03-14T10:34:38.081Z,1.63
2023-03-14T10:38:19.964Z,0.65
2023-03-14T10:42:13.181Z,1.17
2023-03-14T10:46:07.858Z,1.58
2023-03-14T10:49:49.937Z,2.17
2023-03-14T10:54:02.075Z,2.22
2023-03-14T10:57:44.889Z,1.35
2023-03-14T11:01:33.288Z,0.93
2023-03-14T11:05:17.888Z,1.08
2023-03-14T11:09:13.828Z,0.82
2023-03-14T11:13:16.412Z,1.05
2023-03-14T11:17:10.917Z,3.65
2023-03-14T11:21:10.458Z,0.90
2023-03-14T11:24:59.412Z,2.42
2023-03-14T11:28:46.632Z,0.35
2023-03-14T11:32:38.074Z,0.52
2023-03-14T11:36:34.113Z,1.45
2023-03-14T11:40:19.219Z,1.98
2023-03-14T11:44:05.868Z,1.27
2023-03-14T11:47:55.016Z,1.85
2023-03-14T11:51:40.033Z,1.75
2023-03-14T11:55:28.706Z,1.00
2023-03-14T11:59:25.739Z,1.05
2023-03-14T12:03:25.578Z,0.50
2023-03-14T12:07:25.299Z,0.28
2023-03-14T12:11:12.509Z,1.35
2023-03-14T12:15:06.235Z,0.15
2023-03-14T12:18:48.077Z,0.68
2023-03-14T12:22:31.948Z,0.60
2023-03-14T12:26:13.691Z,0.77
2023-03-14T12:30:03.235Z,1.27
2023-03-14T12:33:46.399Z,0.73
2023-03-14T12:37:38.207Z,1.88
2023-03-14T12:41:47.440Z,1.17
2023-03-14T12:45:38.165Z,1.38
2023-03-14T12:49:20.177Z,0.68
2023-03-14T12:53:11.164Z,1.33
2023-03-14T12:57:19.113Z,0.65
2023-03-14T13:01:03.286Z,1.20
2023-03-14T13:04:49.294Z,0.73
2023-03-14T13:08:49.382Z,2.65
2023-03-14T13:12:59.269Z,0.38
2023-03-14T13:16:41.067Z,0.57
2023-03-14T13:20:37.625Z,1.52
2023-03-14T13:24:25.041Z,0.93
2023-03-14T13:28:06.838Z,1.95
2023-03-14T13:31:50.530Z,2.42
2023-03-14T13:35:47.436Z,2.85
2023-03-14T13:39:30.411Z,2.13
2023-03-14T13:43:17.020Z,3.15
2023-03-14T13:47:04.046Z,2.00
2023-03-14T13:50:50.959Z,2.65
2023-03-14T13:54:32.998Z,1.98
2023-03-14T13:58:31.162Z,1.25
2023-03-14T14:02:18.495Z,2.15
2023-03-14T14:06:00.595Z,3.22
2023-03-14T14:09:46.578Z,3.17
2023-03-14T14:13:31.011Z,2.05
2023-03-14T14:17:16.761Z,2.83
2023-03-14T14:20:58.886Z,2.63
2023-03-14T14:24:41.412Z,4.25
2023-03-14T14:28:32.579Z,3.08
2023-03-14T14:32:15.939Z,5.80
2023-03-14T14:36:01.164Z,7.05
2023-03-14T14:39:42.994Z,5.70
2023-03-14T14:43:28.114Z,5.53
2023-03-14T14:47:19.266Z,6.78
2023-03-14T14:51:04.077Z,6.35
2023-03-14T14:54:54.939Z,7.65
2023-03-14T14:58:39.291Z,7.57
2023-03-14T15:02:31.798Z,4.47
2023-03-14T15:06:15.811Z,5.95
2023-03-14T15:09:57.703Z,7.75
2023-03-14T15:13:39.587Z,8.32
2023-03-14T15:17:21.359Z,2.60
2023-03-14T15:21:03.225Z,5.28
2023-03-14T15:24:45.558Z,7.05
2023-03-14T15:28:29.255Z,5.78
2023-03-14T15:32:16.925Z,7.43
2023-03-14T15:35:58.854Z,9.50
2023-03-14T15:39:40.944Z,8.10
2023-03-14T15:43:23.005Z,7.18
2023-03-14T15:47:04.838Z,4.55
2023-03-14T15:50:46.629Z,7.18
2023-03-14T15:54:29.324Z,5.43
2023-03-14T15:58:18.298Z,6.28
2023-03-14T16:02:01.137Z,5.28
2023-03-14T16:05:42.941Z,4.50
2023-03-14T16:09:25.781Z,7.05
2023-03-14T16:13:07.584Z,5.63
2023-03-14T16:16:49.371Z,8.07
2023-03-14T16:20:38.710Z,4.60
2023-03-14T16:24:27.438Z,7.40
2023-03-14T16:28:11.398Z,7.40
2023-03-14T16:31:53.480Z,4.55
2023-03-14T16:35:36.456Z,8.15
2023-03-14T16:39:19.270Z,5.90
2023-03-14T16:43:15.692Z,5.00
2023-03-14T16:46:57.991Z,4.53
2023-03-14T16:50:41.121Z,8.20
2023-03-14T16:54:22.887Z,9.23
2023-03-14T16:58:04.644Z,5.70
2023-03-14T17:01:46.733Z,7.25
2023-03-14T17:05:28.498Z,4.47
2023-03-14T17:09:10.241Z,2.92
2023-03-14T17:12:52.010Z,4.78
2023-03-14T17:16:33.927Z,6.95
2023-03-14T17:20:17.459Z,9.70
2023-03-14T17:23:59.302Z,11.55
2023-03-14T17:27:41.097Z,14.60
2023-03-14T17:31:24.064Z,10.93
2023-03-14T17:35:06.177Z,11.80
2023-03-14T17:38:48.229Z,13.15
2023-03-14T17:42:31.397Z,14.18
2023-03-14T17:46:15.111Z,6.75
2023-03-14T17:49:57.024Z,5.40
2023-03-14T17:53:39.206Z,6.25
2023-03-14T17:57:20.963Z,4.32
2023-03-14T18:01:15.113Z,6.72
2023-03-14T18:04:57.044Z,5.47
2023-03-14T18:08:42.596Z,6.43
2023-03-14T18:12:24.360Z,7.43
2023-03-14T18:16:07.419Z,9.80
2023-03-14T18:19:49.435Z,7.80
2023-03-14T18:23:31.220Z,12.88
2023-03-14T18:27:14.466Z,10.23
2023-03-14T18:31:11.494Z,13.38
2023-03-14T18:34:53.281Z,11.93
2023-03-14T18:38:35.466Z,13.88
2023-03-14T18:42:17.242Z,12.68
2023-03-14T18:46:00.153Z,9.48
2023-03-14T18:49:41.932Z,9.45
2023-03-14T18:53:28.331Z,10.65
2023-03-14T18:57:10.102Z,11.00
2023-03-14T19:00:51.835Z,9.30
2023-03-14T19:04:33.605Z,8.95
2023-03-14T19:08:15.412Z,11.30
2023-03-14T19:11:57.213Z,17.52
2023-03-14T19:15:38.981Z,10.75
2023-03-14T19:19:21.244Z,8.60
2023-03-14T19:23:03.339Z,8.07
2023-03-14T19:26:45.178Z,7.00
2023-03-14T19:30:27.689Z,11.43
2023-03-14T19:34:09.460Z,11.05
2023-03-14T19:37:51.336Z,13.73
2023-03-14T19:41:34.328Z,8.40
2023-03-14T19:45:16.113Z,9.80
2023-03-14T19:48:57.921Z,8.32
2023-03-14T19:52:43.856Z,9.57
2023-03-14T19:56:25.678Z,11.15
2023-03-14T20:00:17.263Z,6.18
2023-03-14T20:03:59.172Z,2.58
2023-03-14T20:07:41.651Z,1.17
2023-03-14T20:11:23.401Z,5.07
2023-03-14T20:15:06.092Z,2.15
2023-03-14T20:18:47.953Z,1.67
2023-03-14T20:22:32.970Z,2.70
2023-03-14T20:26:14.755Z,1.25
2023-03-14T20:29:57.325Z,2.10
2023-03-14T20:33:39.138Z,2.53
2023-03-14T20:37:24.564Z,4.57
2023-03-14T20:41:08.013Z,3.20
2023-03-14T20:44:49.724Z,3.53
2023-03-14T20:48:32.646Z,2.97
2023-03-14T20:52:14.468Z,1.08
2023-03-14T20:55:57.402Z,2.40
2023-03-14T20:59:39.354Z,3.83
2023-03-14T21:03:23.159Z,3.72
2023-03-14T21:07:05.024Z,2.75
2023-03-14T21:10:48.275Z,2.22
2023-03-14T21:14:30.005Z,2.70
2023-03-14T21:18:11.869Z,3.67
2023-03-14T21:21:53.674Z,2.50
2023-03-14T21:25:36.123Z,0.77
2023-03-14T21:33:01.131Z,1.75
2023-03-14T21:36:43.259Z,1.77
2023-03-14T21:40:25.412Z,3.85
2023-03-14T21:44:07.126Z,3.15
2023-03-14T21:47:48.963Z,1.88
2023-03-14T21:51:31.375Z,2.47
2023-03-14T21:55:20.089Z,1.55
2023-03-14T21:59:01.851Z,3.53
2023-03-14T22:02:58.401Z,2.88
2023-03-14T22:06:49.340Z,2.22
2023-03-14T22:10:31.266Z,3.88
2023-03-14T22:14:12.984Z,1.85
2023-03-14T22:17:54.745Z,2.70
2023-03-14T22:21:36.481Z,5.32
2023-03-14T22:25:18.964Z,2.90
2023-03-14T22:29:00.722Z,2.47
2023-03-14T22:32:42.489Z,3.95
2023-03-14T22:36:24.365Z,5.03
2023-03-14T22:40:06.802Z,5.45
2023-03-14T22:43:49.964Z,6.32
2023-03-14T22:47:31.736Z,3.97
2023-03-14T22:51:14.667Z,4.20
2023-03-14T22:54:56.433Z,6.68
2023-03-14T22:58:38.681Z,4.63
2023-03-14T23:02:20.485Z,5.75
2023-03-14T23:06:04.480Z,3.42
2023-03-14T23:09:46.234Z,2.22
2023-03-14T23:13:28.543Z,3.00
2023-03-14T23:17:10.411Z,3.03
2023-03-14T23:20:52.136Z,5.53
2023-03-14T23:24:33.879Z,2.92
2023-03-14T23:28:15.685Z,6.72
2023-03-14T23:31:57.482Z,2.78
2023-03-14T23:35:39.289Z,5.03
2023-03-14T23:39:21.146Z,5.55
2023-03-14T23:43:02.940Z,6.35
2023-03-14T23:46:44.681Z,4.25
2023-03-14T23:50:26.425Z,2.75
2023-03-14T23:54:08.154Z,4.93
2023-03-14T23:57:49.875Z,3.55
